Time,TemperatureF,DewpointF,PressureIn,WindDirection,WindDirectionDegrees,WindSpeedMPH,WindSpeedGustMPH,Humidity,HourlyPrecipIn,Conditions,Clouds,dailyrainin,SoftwareType,DateUTC
2013-07-27 00:00:00,60.6,59.5,29.95,NW,309,0.0,0.0,96,0.00,,CLR,0.00,VWS V14.01,2013-07-27 05:00:00,
2013-07-27 00:04:00,60.6,59.5,29.95,NW,309,0.0,0.0,96,0.00,,CLR,0.00,VWS V14.01,2013-07-27 05:04:00,
2013-07-27 00:09:00,60.5,59.4,29.95,NW,309,0.0,0.0,96,0.00,,CLR,0.00,VWS V14.01,2013-07-27 05:09:00,
2013-07-27 00:10:00,60.5,59.4,29.95,NW,309,0.0,0.0,96,0.00,,CLR,0.00,VWS V14.01,2013-07-27 05:10:00,
2013-07-27 00:14:00,60.5,59.4,29.95,NW,309,0.0,0.0,96,0.00,,CLR,0.00,VWS V14.01,2013-07-27 05:14:00,
2013-07-27 00:19:00,60.4,59.3,29.95,NW,309,0.0,0.0,96,0.00,,CLR,0.00,VWS V14.01,2013-07-27 05:19:00,
2013-07-27 00:20:00,60.4,59.3,29.95,NW,309,0.0,0.0,96,0.00,,CLR,0.00,VWS V14.01,2013-07-27 05:20:00,
2013-07-27 00:25:00,60.3,59.2,29.95,NW,309,0.0,0.0,96,0.00,,CLR,0.00,VWS V14.01,2013-07-27 05:25:00,
2013-07-27 00:30:00,60.1,59.0,29.95,NW,309,0.0,0.0,96,0.00,,CLR,0.00,VWS V14.01,2013-07-27 05:30:00,
2013-07-27 00:35:00,59.9,58.8,29.94,NW,309,0.0,0.0,96,0.00,,CLR,0.00,VWS V14.01,2013-07-27 05:35:00,
2013-07-27 00:40:00,59.9,58.8,29.94,NW,309,0.0,0.0,96,0.00,,CLR,0.00,VWS V14.01,2013-07-27 05:40:00,
2013-07-27 00:45:00,59.8,58.7,29.94,NW,309,0.0,0.0,96,0.00,,CLR,0.00,VWS V14.01,2013-07-27 05:45:00,
2013-07-27 00:50:00,59.7,58.6,29.94,NW,309,0.0,0.0,96,0.00,,CLR,0.00,VWS V14.01,2013-07-27 05:50:00,
2013-07-27 00:56:00,59.7,58.6,29.94,NW,309,0.0,0.0,96,0.00,,CLR,0.00,VWS V14.01,2013-07-27 05:56:00,
2013-07-27 01:00:00,59.7,58.6,29.94,NW,309,0.0,0.0,96,0.00,,CLR,0.00,VWS V14.01,2013-07-27 06:00:00,
2013-07-27 01:01:00,59.7,58.6,29.94,NW,309,0.0,0.0,96,0.00,,CLR,0.00,VWS V14.01,2013-07-27 06:01:00,
2013-07-27 01:06:00,59.7,58.6,29.94,NW,309,0.0,0.0,96,0.00,,CLR,0.00,VWS V14.01,2013-07-27 06:06:00,
2013-07-27 01:10:00,59.7,58.6,29.94,NW,309,0.0,0.0,96,0.00,,CLR,0.00,VWS V14.01,2013-07-27 06:10:00,
2013-07-27 01:11:00,59.7,58.6,29.94,NW,309,0.0,0.0,96,0.00,,CLR,0.00,VWS V14.01,2013-07-27 06:11:00,
2013-07-27 01:16:00,59.7,58.6,29.94,NW,309,0.0,0.0,96,0.00,,CLR,0.00,VWS V14.01,2013-07-27 06:16:00,
2013-07-27 01:20:00,59.7,58.6,29.94,NW,309,0.0,0.0,96,0.00,,CLR,0.00,VWS V14.01,2013-07-27 06:20:00,
2013-07-27 01:21:00,59.7,58.6,29.94,NW,309,0.0,0.0,96,0.00,,CLR,0.00,VWS V14.01,2013-07-27 06:21:00,
2013-07-27 01:26:00,59.7,58.6,29.94,NW,309,0.0,0.0,96,0.00,,CLR,0.00,VWS V14.01,2013-07-27 06:26:00,
2013-07-27 01:30:00,59.7,58.6,29.94,NW,309,0.0,0.0,96,0.00,,CLR,0.00,VWS V14.01,2013-07-27 06:30:00,
2013-07-27 01:32:00,59.7,58.6,29.94,NW,309,0.0,0.0,96,0.00,,CLR,0.00,VWS V14.01,2013-07-27 06:32:00,
2013-07-27 01:37:00,59.7,58.6,29.93,NW,309,0.0,0.0,96,0.00,,CLR,0.00,VWS V14.01,2013-07-27 06:37:00,
2013-07-27 01:40:00,59.7,58.6,29.94,NW,309,0.0,0.0,96,0.00,,CLR,0.00,VWS V14.01,2013-07-27 06:40:00,
2013-07-27 01:42:00,59.7,58.6,29.93,NW,309,0.0,0.0,96,0.00,,CLR,0.00,VWS V14.01,2013-07-27 06:42:00,
2013-07-27 01:47:00,59.6,58.5,29.93,NW,309,0.0,0.0,96,0.00,,CLR,0.00,VWS V14.01,2013-07-27 06:47:00,
2013-07-27 01:50:00,59.6,58.5,29.94,NW,309,0.0,0.0,96,0.00,,CLR,0.00,VWS V14.01,2013-07-27 06:50:00,
2013-07-27 01:52:00,59.6,58.5,29.94,NW,309,0.0,0.0,96,0.00,,CLR,0.00,VWS V14.01,2013-07-27 06:52:00,
2013-07-27 01:57:00,59.6,58.5,29.94,NW,309,0.0,0.0,96,0.00,,CLR,0.00,VWS V14.01,2013-07-27 06:57:00,
2013-07-27 02:00:00,59.6,58.5,29.94,NW,309,0.0,0.0,96,0.00,,CLR,0.00,VWS V14.01,2013-07-27 07:00:00,
2013-07-27 02:02:00,59.5,58.4,29.93,NW,309,0.0,0.0,96,0.00,,CLR,0.00,VWS V14.01,2013-07-27 07:02:00,
2013-07-27 02:08:00,59.4,58.3,29.94,NW,309,0.0,0.0,96,0.00,,CLR,0.00,VWS V14.01,2013-07-27 07:08:00,
2013-07-27 02:10:00,59.4,58.3,29.94,NW,309,0.0,0.0,96,0.00,,CLR,0.00,VWS V14.01,2013-07-27 07:10:00,
2013-07-27 02:13:00,59.4,58.3,29.93,NW,309,0.0,0.0,96,0.00,,CLR,0.00,VWS V14.01,2013-07-27 07:13:00,
2013-07-27 02:18:00,59.4,58.3,29.93,NW,309,0.0,0.0,96,0.00,,CLR,0.00,VWS V14.01,2013-07-27 07:18:00,
2013-07-27 02:20:00,59.4,58.3,29.93,NW,309,0.0,0.0,96,0.00,,CLR,0.00,VWS V14.01,2013-07-27 07:20:00,
2013-07-27 02:23:00,59.4,58.3,29.93,NW,309,0.0,0.0,96,0.00,,CLR,0.00,VWS V14.01,2013-07-27 07:23:00,
2013-07-27 02:28:00,59.4,58.3,29.93,NW,309,0.0,0.0,96,0.00,,CLR,0.00,VWS V14.01,2013-07-27 07:28:00,
2013-07-27 02:30:00,59.4,58.3,29.93,NW,309,0.0,0.0,96,0.00,,CLR,0.00,VWS V14.01,2013-07-27 07:30:00,
2013-07-27 02:33:00,59.4,58.3,29.93,NW,309,0.0,0.0,96,0.00,,CLR,0.00,VWS V14.01,2013-07-27 07:33:00,
2013-07-27 02:38:00,59.4,58.3,29.93,NW,309,0.0,0.0,96,0.00,,CLR,0.00,VWS V14.01,2013-07-27 07:38:00,
2013-07-27 02:40:00,59.4,58.3,29.93,NW,309,0.0,0.0,96,0.00,,CLR,0.00,VWS V14.01,2013-07-27 07:40:00,
2013-07-27 02:44:00,59.5,58.4,29.93,NW,309,0.0,0.0,96,0.00,,CLR,0.00,VWS V14.01,2013-07-27 07:44:00,
2013-07-27 02:49:00,59.6,58.2,29.93,NW,311,0.0,0.0,95,0.00,,CLR,0.00,VWS V14.01,2013-07-27 07:49:00,
2013-07-27 02:50:00,59.6,58.2,29.93,NW,309,0.0,0.0,95,0.00,,CLR,0.00,VWS V14.01,2013-07-27 07:50:00,
2013-07-27 02:54:00,59.7,58.3,29.93,NW,310,0.0,0.0,95,0.00,,CLR,0.00,VWS V14.01,2013-07-27 07:54:00,
2013-07-27 02:59:00,59.7,58.3,29.94,NW,311,0.0,0.0,95,0.00,,CLR,0.00,VWS V14.01,2013-07-27 07:59:00,
2013-07-27 03:00:00,59.7,58.3,29.94,NW,311,0.0,0.0,95,0.00,,CLR,0.00,VWS V14.01,2013-07-27 08:00:00,
2013-07-27 03:04:00,59.7,58.0,29.94,NW,311,0.0,0.0,94,0.00,,CLR,0.00,VWS V14.01,2013-07-27 08:04:00,
2013-07-27 03:10:00,59.7,58.0,29.93,NW,311,0.0,0.0,94,0.00,,CLR,0.00,VWS V14.01,2013-07-27 08:10:00,
2013-07-27 03:15:00,59.7,58.0,29.94,NW,309,0.0,0.0,94,0.00,,CLR,0.00,VWS V14.01,2013-07-27 08:15:00,
2013-07-27 03:20:00,59.6,57.9,29.94,NW,311,0.0,0.0,94,0.00,,CLR,0.00,VWS V14.01,2013-07-27 08:20:00,
2013-07-27 03:25:00,59.4,57.7,29.93,NW,311,0.0,0.0,94,0.00,,CLR,0.00,VWS V14.01,2013-07-27 08:25:00,
2013-07-27 03:30:00,59.3,57.6,29.94,NW,311,0.0,0.0,94,0.00,,CLR,0.00,VWS V14.01,2013-07-27 08:30:00,
2013-07-27 03:35:00,59.1,57.4,29.94,NW,311,0.0,0.0,94,0.00,,CLR,0.00,VWS V14.01,2013-07-27 08:35:00,
2013-07-27 03:40:00,59.0,57.3,29.94,NW,311,0.0,0.0,94,0.00,,CLR,0.00,VWS V14.01,2013-07-27 08:40:00,
2013-07-27 03:46:00,59.0,57.6,29.94,NW,309,0.0,0.0,95,0.00,,CLR,0.00,VWS V14.01,2013-07-27 08:46:00,
2013-07-27 03:50:00,58.9,57.5,29.94,NW,311,0.0,0.0,95,0.00,,CLR,0.00,VWS V14.01,2013-07-27 08:50:00,
2013-07-27 03:51:00,58.8,57.4,29.94,NW,311,0.0,0.0,95,0.00,,CLR,0.00,VWS V14.01,2013-07-27 08:51:00,
2013-07-27 03:56:00,58.7,57.3,29.94,NW,309,0.0,0.0,95,0.00,,CLR,0.00,VWS V14.01,2013-07-27 08:56:00,
2013-07-27 04:00:00,58.7,57.3,29.94,NW,311,0.0,0.0,95,0.00,,CLR,0.00,VWS V14.01,2013-07-27 09:00:00,
2013-07-27 04:01:00,58.7,57.3,29.94,NW,311,0.0,0.0,95,0.00,,CLR,0.00,VWS V14.01,2013-07-27 09:01:00,
2013-07-27 04:06:00,58.5,57.1,29.94,NW,309,0.0,0.0,95,0.00,,CLR,0.00,VWS V14.01,2013-07-27 09:06:00,
2013-07-27 04:10:00,58.4,57.0,29.94,NW,308,0.0,0.0,95,0.00,,CLR,0.00,VWS V14.01,2013-07-27 09:10:00,
2013-07-27 04:11:00,58.3,56.9,29.94,NW,308,0.0,0.0,95,0.00,,CLR,0.00,VWS V14.01,2013-07-27 09:11:00,
2013-07-27 04:16:00,58.1,56.7,29.94,NW,307,0.0,0.0,95,0.00,,CLR,0.00,VWS V14.01,2013-07-27 09:16:00,
2013-07-27 04:20:00,58.1,56.7,29.94,NW,307,0.0,0.0,95,0.00,,CLR,0.00,VWS V14.01,2013-07-27 09:20:00,
2013-07-27 04:21:00,58.0,56.6,29.94,NW,307,0.0,0.0,95,0.00,,CLR,0.00,VWS V14.01,2013-07-27 09:21:00,
2013-07-27 04:27:00,57.9,56.5,29.94,NW,307,0.0,0.0,95,0.00,,CLR,0.00,VWS V14.01,2013-07-27 09:27:00,
2013-07-27 04:30:00,57.9,56.5,29.94,NW,308,0.0,0.0,95,0.00,,CLR,0.00,VWS V14.01,2013-07-27 09:30:00,
2013-07-27 04:32:00,57.8,56.4,29.94,NW,308,0.0,0.0,95,0.00,,CLR,0.00,VWS V14.01,2013-07-27 09:32:00,
2013-07-27 04:37:00,57.8,56.7,29.94,NW,308,0.0,0.0,96,0.00,,CLR,0.00,VWS V14.01,2013-07-27 09:37:00,
2013-07-27 04:40:00,57.8,56.7,29.94,NW,307,0.0,0.0,96,0.00,,CLR,0.00,VWS V14.01,2013-07-27 09:40:00,
2013-07-27 04:42:00,57.8,56.7,29.94,NW,307,0.0,0.0,96,0.00,,CLR,0.00,VWS V14.01,2013-07-27 09:42:00,
2013-07-27 04:47:00,57.7,56.6,29.94,NW,308,0.0,0.0,96,0.00,,CLR,0.00,VWS V14.01,2013-07-27 09:47:00,
2013-07-27 04:50:00,57.7,56.6,29.94,NW,308,0.0,0.0,96,0.00,,CLR,0.00,VWS V14.01,2013-07-27 09:50:00,
2013-07-27 04:52:00,57.7,56.6,29.94,NW,309,0.0,0.0,96,0.00,,CLR,0.00,VWS V14.01,2013-07-27 09:52:00,
2013-07-27 04:58:00,57.7,56.6,29.94,NW,309,0.0,0.0,96,0.00,,CLR,0.00,VWS V14.01,2013-07-27 09:58:00,
2013-07-27 05:00:00,57.7,56.6,29.94,NW,309,0.0,0.0,96,0.00,,CLR,0.00,VWS V14.01,2013-07-27 10:00:00,
2013-07-27 05:03:00,57.8,56.7,29.94,NW,309,0.0,0.0,96,0.00,,CLR,0.00,VWS V14.01,2013-07-27 10:03:00,
2013-07-27 05:08:00,57.8,56.7,29.95,NW,309,0.0,0.0,96,0.00,,CLR,0.00,VWS V14.01,2013-07-27 10:08:00,
2013-07-27 05:10:00,57.8,56.7,29.94,NW,309,0.0,0.0,96,0.00,,CLR,0.00,VWS V14.01,2013-07-27 10:10:00,
2013-07-27 05:13:00,57.8,56.7,29.94,NW,309,0.0,0.0,96,0.00,,CLR,0.00,VWS V14.01,2013-07-27 10:13:00,
2013-07-27 05:18:00,57.8,56.7,29.94,NW,309,0.0,0.0,96,0.00,,CLR,0.00,VWS V14.01,2013-07-27 10:18:00,
2013-07-27 05:20:00,57.8,56.7,29.94,NW,309,0.0,0.0,96,0.00,,CLR,0.00,VWS V14.01,2013-07-27 10:20:00,
2013-07-27 05:23:00,57.6,56.5,29.94,NW,309,0.0,0.0,96,0.00,,CLR,0.00,VWS V14.01,2013-07-27 10:23:00,
2013-07-27 05:28:00,57.6,56.5,29.94,NW,309,0.0,0.0,96,0.00,,CLR,0.00,VWS V14.01,2013-07-27 10:28:00,
2013-07-27 05:30:00,57.6,56.5,29.94,NW,309,0.0,0.0,96,0.00,,CLR,0.00,VWS V14.01,2013-07-27 10:30:00,
2013-07-27 05:33:00,57.6,56.5,29.95,NW,309,0.0,0.0,96,0.00,,CLR,0.00,VWS V14.01,2013-07-27 10:33:00,
2013-07-27 05:38:00,57.5,56.4,29.95,NW,307,0.0,0.0,96,0.00,,CLR,0.00,VWS V14.01,2013-07-27 10:38:00,
2013-07-27 05:40:00,57.5,56.4,29.95,NW,306,0.0,0.0,96,0.00,,CLR,0.00,VWS V14.01,2013-07-27 10:40:00,
2013-07-27 05:43:00,57.5,56.4,29.95,NW,306,0.0,0.0,96,0.00,,CLR,0.00,VWS V14.01,2013-07-27 10:43:00,
2013-07-27 05:49:00,57.4,56.3,29.95,NW,306,0.0,0.0,96,0.00,,CLR,0.00,VWS V14.01,2013-07-27 10:49:00,
2013-07-27 05:50:00,57.4,56.3,29.95,NW,306,0.0,0.0,96,0.00,,CLR,0.00,VWS V14.01,2013-07-27 10:50:00,
2013-07-27 05:54:00,57.4,56.3,29.96,NW,306,0.0,0.0,96,0.00,,CLR,0.00,VWS V14.01,2013-07-27 10:54:00,
2013-07-27 05:59:00,57.3,56.2,29.96,WNW,296,0.0,0.0,96,0.00,,CLR,0.00,VWS V14.01,2013-07-27 10:59:00,
2013-07-27 06:00:00,57.4,56.3,29.96,WNW,297,0.0,0.0,96,0.00,,CLR,0.00,VWS V14.01,2013-07-27 11:00:00,
2013-07-27 06:04:00,57.3,56.2,29.96,NW,314,0.0,0.0,96,0.00,,CLR,0.00,VWS V14.01,2013-07-27 11:04:00,
2013-07-27 06:09:00,57.3,56.2,29.96,NW,315,0.0,0.0,96,0.00,,CLR,0.00,VWS V14.01,2013-07-27 11:09:00,
2013-07-27 06:10:00,57.3,56.2,29.96,NW,315,0.0,0.0,96,0.00,,CLR,0.00,VWS V14.01,2013-07-27 11:10:00,
2013-07-27 06:14:00,57.2,56.1,29.96,NW,315,0.0,0.0,96,0.00,,CLR,0.00,VWS V14.01,2013-07-27 11:14:00,
2013-07-27 06:19:00,57.2,56.1,29.96,NW,315,0.0,0.0,96,0.00,,SCT065,0.00,VWS V14.01,2013-07-27 11:19:00,
2013-07-27 06:20:00,57.2,56.1,29.96,NW,315,0.0,0.0,96,0.00,,CLR,0.00,VWS V14.01,2013-07-27 11:20:00,
2013-07-27 06:25:00,57.3,56.2,29.96,NW,314,0.0,0.0,96,0.00,,SCT065,0.00,VWS V14.01,2013-07-27 11:25:00,
2013-07-27 06:30:00,57.3,56.2,29.97,NW,314,0.0,0.0,96,0.00,,SCT065,0.00,VWS V14.01,2013-07-27 11:30:00,
2013-07-27 06:35:00,57.3,56.2,29.96,NW,311,0.0,0.0,96,0.00,,SCT065,0.00,VWS V14.01,2013-07-27 11:35:00,
2013-07-27 06:40:00,57.3,56.2,29.97,NW,311,0.0,0.0,96,0.00,,OVC065,0.00,VWS V14.01,2013-07-27 11:40:00,
2013-07-27 06:45:00,57.3,56.2,29.97,NW,316,0.0,0.0,96,0.00,,OVC065,0.00,VWS V14.01,2013-07-27 11:45:00,
2013-07-27 06:50:00,57.4,56.3,29.97,NW,316,0.0,0.0,96,0.00,,OVC065,0.00,VWS V14.01,2013-07-27 11:50:00,
2013-07-27 06:55:00,57.6,56.5,29.97,NW,316,0.0,0.0,96,0.00,,OVC065,0.00,VWS V14.01,2013-07-27 11:55:00,
2013-07-27 07:00:00,58.1,57.0,29.97,NW,319,0.0,0.0,96,0.00,,OVC065,0.00,VWS V14.01,2013-07-27 12:00:00,
2013-07-27 07:06:00,58.3,57.2,29.97,NW,319,0.0,0.0,96,0.00,,OVC065,0.00,VWS V14.01,2013-07-27 12:06:00,
2013-07-27 07:10:00,58.4,57.0,29.97,NW,319,0.0,0.0,95,0.00,,CLR,0.00,VWS V14.01,2013-07-27 12:10:00,
2013-07-27 07:11:00,58.4,57.0,29.97,NW,319,0.0,0.0,95,0.00,,OVC065,0.00,VWS V14.01,2013-07-27 12:11:00,
2013-07-27 07:16:00,58.5,57.1,29.97,NW,319,0.0,0.0,95,0.00,,OVC065,0.00,VWS V14.01,2013-07-27 12:16:00,
2013-07-27 07:20:00,58.6,57.2,29.97,NW,311,0.0,0.0,95,0.00,,CLR,0.00,VWS V14.01,2013-07-27 12:20:00,
2013-07-27 07:21:00,58.5,56.8,29.97,NW,313,0.0,0.0,94,0.00,,OVC065,0.00,VWS V14.01,2013-07-27 12:21:00,
2013-07-27 07:26:00,58.7,57.0,29.97,NW,319,0.0,0.0,94,0.00,,OVC065,0.00,VWS V14.01,2013-07-27 12:26:00,
2013-07-27 07:30:00,58.8,57.1,29.97,NW,314,0.0,0.0,94,0.00,,CLR,0.00,VWS V14.01,2013-07-27 12:30:00,
2013-07-27 07:31:00,59.1,57.4,29.97,NW,311,0.0,0.0,94,0.00,,OVC065,0.00,VWS V14.01,2013-07-27 12:31:00,
2013-07-27 07:37:00,59.5,57.5,29.97,West,269,1.0,2.0,93,0.00,,OVC065,0.00,VWS V14.01,2013-07-27 12:37:00,
2013-07-27 07:40:00,59.6,57.6,29.97,NW,313,1.0,3.0,93,0.00,,CLR,0.00,VWS V14.01,2013-07-27 12:40:00,
2013-07-27 07:42:00,59.6,57.3,29.97,NW,318,0.0,3.0,92,0.00,,OVC065,0.00,VWS V14.01,2013-07-27 12:42:00,
2013-07-27 07:48:00,59.4,56.8,29.97,NW,316,0.0,3.0,91,0.00,,OVC065,0.00,VWS V14.01,2013-07-27 12:48:00,
2013-07-27 07:50:00,59.4,56.8,29.97,NW,316,1.0,3.0,91,0.00,,CLR,0.00,VWS V14.01,2013-07-27 12:50:00,
2013-07-27 07:53:00,59.5,57.2,29.97,NW,322,2.0,2.0,92,0.00,,OVC065,0.00,VWS V14.01,2013-07-27 12:53:00,
2013-07-27 07:58:00,59.5,56.9,29.97,NW,312,0.0,3.0,91,0.00,,OVC065,0.00,VWS V14.01,2013-07-27 12:58:00,
2013-07-27 08:00:00,59.5,56.9,29.97,NW,312,0.0,3.0,91,0.00,,CLR,0.00,VWS V14.01,2013-07-27 13:00:00,
2013-07-27 08:03:00,59.5,56.9,29.97,NNW,330,0.0,2.0,91,0.00,,OVC065,0.00,VWS V14.01,2013-07-27 13:03:00,
2013-07-27 08:08:00,59.6,57.3,29.97,WNW,295,0.0,1.0,92,0.00,,OVC065,0.00,VWS V14.01,2013-07-27 13:08:00,
2013-07-27 08:10:00,59.6,57.3,29.97,WNW,295,0.0,2.0,92,0.00,,CLR,0.00,VWS V14.01,2013-07-27 13:10:00,
2013-07-27 08:13:00,59.6,57.3,29.97,NW,315,2.0,2.0,92,0.00,,OVC065,0.00,VWS V14.01,2013-07-27 13:13:00,
2013-07-27 08:18:00,59.6,57.0,29.97,NW,316,0.0,1.0,91,0.00,,OVC065,0.00,VWS V14.01,2013-07-27 13:18:00,
2013-07-27 08:20:00,59.6,57.0,29.97,NW,316,1.0,2.0,91,0.00,,CLR,0.00,VWS V14.01,2013-07-27 13:20:00,
2013-07-27 08:24:00,59.6,57.0,29.97,NW,304,0.0,2.0,91,0.00,,OVC065,0.00,VWS V14.01,2013-07-27 13:24:00,
2013-07-27 08:29:00,60.0,57.4,29.97,WNW,300,0.0,0.0,91,0.00,,OVC065,0.00,VWS V14.01,2013-07-27 13:29:00,
2013-07-27 08:30:00,59.9,57.3,29.97,WNW,300,0.0,2.0,91,0.00,,CLR,0.00,VWS V14.01,2013-07-27 13:30:00,
2013-07-27 08:34:00,60.5,57.9,29.97,NW,319,1.0,2.0,91,0.00,,OVC065,0.00,VWS V14.01,2013-07-27 13:34:00,
2013-07-27 08:39:00,61.0,57.7,29.97,WNW,302,1.0,2.0,89,0.00,,OVC065,0.00,VWS V14.01,2013-07-27 13:39:00,
2013-07-27 08:40:00,60.9,58.0,29.97,North,360,1.0,2.0,90,0.00,,CLR,0.00,VWS V14.01,2013-07-27 13:40:00,
2013-07-27 08:44:00,61.2,57.6,29.98,NW,307,2.0,2.0,88,0.00,,OVC065,0.00,VWS V14.01,2013-07-27 13:44:00,
2013-07-27 08:49:00,61.2,57.6,29.98,NW,311,0.0,2.0,88,0.00,,OVC065,0.00,VWS V14.01,2013-07-27 13:49:00,
2013-07-27 08:50:00,61.2,57.3,29.98,NW,319,0.0,3.0,87,0.00,,CLR,0.00,VWS V14.01,2013-07-27 13:50:00,
2013-07-27 08:55:00,61.0,57.1,29.98,NW,305,1.0,2.0,87,0.00,,OVC065,0.00,VWS V14.01,2013-07-27 13:55:00,
2013-07-27 09:00:00,60.9,57.3,29.98,NW,315,2.0,2.0,88,0.00,,OVC030,0.00,VWS V14.01,2013-07-27 14:00:00,
2013-07-27 09:05:00,60.9,57.0,29.98,NW,311,0.0,2.0,87,0.00,,OVC030,0.00,VWS V14.01,2013-07-27 14:05:00,
2013-07-27 09:10:00,61.0,57.1,29.98,NW,316,0.0,0.0,87,0.00,,OVC030,0.00,VWS V14.01,2013-07-27 14:10:00,
2013-07-27 09:15:00,61.1,56.9,29.98,NW,309,0.0,2.0,86,0.00,,OVC030,0.00,VWS V14.01,2013-07-27 14:15:00,
2013-07-27 09:20:00,61.3,57.1,29.98,NW,321,0.0,1.0,86,0.00,,BKN065,0.00,VWS V14.01,2013-07-27 14:20:00,
2013-07-27 09:26:00,61.8,57.2,29.98,NW,318,0.0,1.0,85,0.00,,BKN065,0.00,VWS V14.01,2013-07-27 14:26:00,
2013-07-27 09:30:00,61.9,57.3,29.98,NNW,336,1.0,1.0,85,0.00,,CLR,0.00,VWS V14.01,2013-07-27 14:30:00,
2013-07-27 09:31:00,61.8,56.9,29.98,NW,318,0.0,3.0,84,0.00,,BKN065,0.00,VWS V14.01,2013-07-27 14:31:00,
2013-07-27 09:36:00,62.1,56.9,29.98,NW,313,0.0,3.0,83,0.00,,BKN065,0.00,VWS V14.01,2013-07-27 14:36:00,
2013-07-27 09:40:00,62.5,57.6,29.97,NW,312,0.0,3.0,84,0.00,,CLR,0.00,VWS V14.01,2013-07-27 14:40:00,
2013-07-27 09:42:00,63.1,57.5,29.97,West,281,1.0,3.0,82,0.00,,BKN065,0.00,VWS V14.01,2013-07-27 14:42:00,
2013-07-27 09:47:00,63.2,56.9,29.98,NNW,340,1.0,4.0,80,0.00,,BKN065,0.00,VWS V14.01,2013-07-27 14:47:00,
2013-07-27 09:50:00,63.1,56.8,29.98,NW,323,0.0,4.0,80,0.00,,CLR,0.00,VWS V14.01,2013-07-27 14:50:00,
2013-07-27 09:52:00,62.9,56.6,29.97,NW,325,0.0,3.0,80,0.00,,BKN065,0.00,VWS V14.01,2013-07-27 14:52:00,
2013-07-27 09:57:00,62.9,56.6,29.97,NW,314,0.0,3.0,80,0.00,,BKN065,0.00,VWS V14.01,2013-07-27 14:57:00,
2013-07-27 10:00:00,62.9,56.6,29.97,NW,316,0.0,3.0,80,0.00,,CLR,0.00,VWS V14.01,2013-07-27 15:00:00,
2013-07-27 10:02:00,62.6,56.7,29.97,NW,313,0.0,2.0,81,0.00,,BKN049,0.00,VWS V14.01,2013-07-27 15:02:00,
2013-07-27 10:07:00,63.1,57.5,29.97,NNE,19,0.0,2.0,82,0.00,,BKN049,0.00,VWS V14.01,2013-07-27 15:07:00,
2013-07-27 10:10:00,63.1,57.5,29.97,NNE,20,0.0,2.0,82,0.00,,CLR,0.00,VWS V14.01,2013-07-27 15:10:00,
2013-07-27 10:12:00,63.3,56.7,29.97,West,278,0.0,1.0,79,0.00,,BKN049,0.00,VWS V14.01,2013-07-27 15:12:00,
2013-07-27 10:18:00,63.1,57.2,29.97,WNW,288,0.0,1.0,81,0.00,,BKN049,0.00,VWS V14.01,2013-07-27 15:18:00,
2013-07-27 10:20:00,63.1,57.2,29.97,WNW,288,0.0,1.0,81,0.00,,CLR,0.00,VWS V14.01,2013-07-27 15:20:00,
2013-07-27 10:23:00,63.7,58.1,29.97,NNW,335,0.0,2.0,82,0.00,,BKN049,0.00,VWS V14.01,2013-07-27 15:23:00,
2013-07-27 10:28:00,64.3,57.7,29.97,WNW,285,1.0,2.0,79,0.00,,BKN049,0.00,VWS V14.01,2013-07-27 15:28:00,
2013-07-27 10:30:00,64.3,57.7,29.97,WNW,285,1.0,2.0,79,0.00,,CLR,0.00,VWS V14.01,2013-07-27 15:30:00,
2013-07-27 10:33:00,64.2,57.6,29.97,NNW,331,0.0,2.0,79,0.00,,BKN049,0.00,VWS V14.01,2013-07-27 15:33:00,
2013-07-27 10:38:00,64.5,58.2,29.97,WNW,293,1.0,2.0,80,0.00,,BKN049,0.00,VWS V14.01,2013-07-27 15:38:00,
2013-07-27 10:40:00,64.4,58.1,29.97,NW,315,2.0,2.0,80,0.00,,CLR,0.00,VWS V14.01,2013-07-27 15:40:00,
2013-07-27 10:44:00,65.0,58.0,29.97,NNW,337,0.0,5.0,78,0.00,,OVC034,0.00,VWS V14.01,2013-07-27 15:44:00,
2013-07-27 10:49:00,64.9,57.5,29.97,WNW,300,0.0,2.0,77,0.00,,OVC034,0.00,VWS V14.01,2013-07-27 15:49:00,
2013-07-27 10:50:00,65.0,58.0,29.97,NW,319,0.0,5.0,78,0.00,,CLR,0.00,VWS V14.01,2013-07-27 15:50:00,
2013-07-27 10:54:00,64.5,57.1,29.97,WNW,300,1.0,2.0,77,0.00,,OVC034,0.00,VWS V14.01,2013-07-27 15:54:00,
2013-07-27 10:59:00,63.8,57.2,29.97,NW,305,1.0,1.0,79,0.00,,OVC034,0.00,VWS V14.01,2013-07-27 15:59:00,
2013-07-27 11:00:00,63.9,56.9,29.97,WNW,300,0.0,2.0,78,0.00,,CLR,0.00,VWS V14.01,2013-07-27 16:00:00,
2013-07-27 11:04:00,64.5,57.5,29.96,WSW,243,1.0,2.0,78,0.00,,BKN038,0.00,VWS V14.01,2013-07-27 16:04:00,
2013-07-27 11:10:00,65.1,57.0,29.97,WNW,295,2.0,3.0,75,0.00,,BKN038,0.00,VWS V14.01,2013-07-27 16:10:00,
2013-07-27 11:15:00,65.6,56.3,29.97,NW,314,1.0,4.0,72,0.00,,BKN038,0.00,VWS V14.01,2013-07-27 16:15:00,
2013-07-27 11:20:00,66.4,55.9,29.97,NW,305,0.0,3.0,69,0.00,,SCT050,0.00,VWS V14.01,2013-07-27 16:20:00,
2013-07-27 11:25:00,67.0,56.5,29.97,NW,313,1.0,7.0,69,0.00,,SCT050,0.00,VWS V14.01,2013-07-27 16:25:00,
2013-07-27 11:30:00,66.4,53.4,29.97,NW,320,2.0,3.0,63,0.00,,SCT050,0.00,VWS V14.01,2013-07-27 16:30:00,
2013-07-27 11:36:00,66.1,55.2,29.97,NW,319,1.0,4.0,68,0.00,,SCT050,0.00,VWS V14.01,2013-07-27 16:36:00,
2013-07-27 11:40:00,66.3,55.0,29.97,NNW,335,1.0,4.0,67,0.00,,CLR,0.00,VWS V14.01,2013-07-27 16:40:00,
2013-07-27 11:41:00,66.4,55.1,29.97,WNW,302,1.0,3.0,67,0.00,,BKN060,0.00,VWS V14.01,2013-07-27 16:41:00,
2013-07-27 11:46:00,66.2,54.9,29.97,SE,143,1.0,5.0,67,0.00,,BKN060,0.00,VWS V14.01,2013-07-27 16:46:00,
2013-07-27 11:50:00,66.1,54.8,29.97,NNW,330,2.0,5.0,67,0.00,,CLR,0.00,VWS V14.01,2013-07-27 16:50:00,
2013-07-27 11:51:00,65.9,54.7,29.97,NNW,337,1.0,3.0,67,0.00,,BKN060,0.00,VWS V14.01,2013-07-27 16:51:00,
2013-07-27 11:56:00,65.9,54.7,29.97,WNW,300,1.0,5.0,67,0.00,,BKN060,0.00,VWS V14.01,2013-07-27 16:56:00,
2013-07-27 12:00:00,65.8,55.4,29.97,NW,322,0.0,5.0,69,0.00,,CLR,0.00,VWS V14.01,2013-07-27 17:00:00,
2013-07-27 12:02:00,65.4,53.3,29.97,NW,307,0.0,2.0,65,0.00,,OVC060,0.00,VWS V14.01,2013-07-27 17:02:00,
2013-07-27 12:07:00,66.0,55.2,29.97,West,262,1.0,3.0,68,0.00,,OVC060,0.00,VWS V14.01,2013-07-27 17:07:00,
2013-07-27 12:10:00,66.3,55.0,29.97,NNW,347,2.0,3.0,67,0.00,,CLR,0.00,VWS V14.01,2013-07-27 17:10:00,
2013-07-27 12:12:00,66.7,53.3,29.97,NNW,330,2.0,4.0,62,0.00,,OVC060,0.00,VWS V14.01,2013-07-27 17:12:00,
2013-07-27 12:17:00,65.8,52.9,29.96,NW,308,1.0,4.0,63,0.00,,OVC060,0.00,VWS V14.01,2013-07-27 17:17:00,
2013-07-27 12:20:00,65.6,52.7,29.97,NW,311,1.0,4.0,63,0.00,,CLR,0.00,VWS V14.01,2013-07-27 17:20:00,
2013-07-27 12:22:00,65.1,53.9,29.97,NW,316,1.0,3.0,67,0.00,,BKN060,0.00,VWS V14.01,2013-07-27 17:22:00,
2013-07-27 12:27:00,65.7,53.6,29.96,NW,318,1.0,3.0,65,0.00,,BKN060,0.00,VWS V14.01,2013-07-27 17:27:00,
2013-07-27 12:30:00,65.8,53.7,29.96,WNW,298,2.0,3.0,65,0.00,,CLR,0.00,VWS V14.01,2013-07-27 17:30:00,
2013-07-27 12:32:00,65.9,52.5,29.96,SW,218,5.0,10.0,62,0.00,,BKN060,0.00,VWS V14.01,2013-07-27 17:32:00,
2013-07-27 12:38:00,65.2,53.2,29.96,NW,309,1.0,10.0,65,0.00,,BKN060,0.00,VWS V14.01,2013-07-27 17:38:00,
2013-07-27 12:40:00,65.2,53.2,29.96,NNW,331,2.0,10.0,65,0.00,,CLR,0.00,VWS V14.01,2013-07-27 17:40:00,
2013-07-27 12:43:00,65.1,53.9,29.96,WNW,289,1.0,5.0,67,0.00,,BKN060,0.00,VWS V14.01,2013-07-27 17:43:00,
2013-07-27 12:48:00,65.8,54.1,29.96,WSW,238,0.0,7.0,66,0.00,,BKN060,0.00,VWS V14.01,2013-07-27 17:48:00,
2013-07-27 12:50:00,65.9,54.2,29.96,WSW,238,1.0,7.0,66,0.00,,CLR,0.00,VWS V14.01,2013-07-27 17:50:00,
2013-07-27 12:53:00,65.8,53.3,29.96,WNW,288,1.0,7.0,64,0.00,,BKN060,0.00,VWS V14.01,2013-07-27 17:53:00,
2013-07-27 12:58:00,65.3,53.2,29.96,WNW,299,3.0,4.0,65,0.00,,BKN060,0.00,VWS V14.01,2013-07-27 17:58:00,
2013-07-27 13:00:00,65.4,53.3,29.96,WSW,253,2.0,7.0,65,0.00,,CLR,0.00,VWS V14.01,2013-07-27 18:00:00,
2013-07-27 13:03:00,65.3,53.2,29.96,NNW,343,1.0,4.0,65,0.00,,BKN060,0.00,VWS V14.01,2013-07-27 18:03:00,
2013-07-27 13:08:00,66.1,54.0,29.96,NW,326,0.0,1.0,65,0.00,,BKN060,0.00,VWS V14.01,2013-07-27 18:08:00,
2013-07-27 13:10:00,66.0,53.9,29.96,NW,323,1.0,4.0,65,0.00,,CLR,0.00,VWS V14.01,2013-07-27 18:10:00,
2013-07-27 13:14:00,66.9,54.8,29.96,West,269,1.0,3.0,65,0.00,,BKN060,0.00,VWS V14.01,2013-07-27 18:14:00,
2013-07-27 13:19:00,67.0,52.7,29.96,NNW,338,2.0,4.0,60,0.00,,BKN060,0.00,VWS V14.01,2013-07-27 18:19:00,
2013-07-27 13:20:00,67.1,52.8,29.96,NNW,329,2.0,3.0,60,0.00,,CLR,0.00,VWS V14.01,2013-07-27 18:20:00,
2013-07-27 13:24:00,66.8,53.4,29.96,WNW,298,1.0,5.0,62,0.00,,BKN060,0.00,VWS V14.01,2013-07-27 18:24:00,
2013-07-27 13:29:00,66.6,53.6,29.96,NNE,26,0.0,1.0,63,0.00,,BKN060,0.00,VWS V14.01,2013-07-27 18:29:00,
2013-07-27 13:30:00,66.5,54.0,29.96,NW,318,0.0,1.0,64,0.00,,BKN060,0.00,VWS V14.01,2013-07-27 18:30:00,
2013-07-27 13:36:00,65.9,53.8,29.97,NW,307,0.0,3.0,65,0.00,,BKN060,0.00,VWS V14.01,2013-07-27 18:36:00,
2013-07-27 13:40:00,66.0,54.3,29.97,NW,311,0.0,3.0,66,0.00,,CLR,0.00,VWS V14.01,2013-07-27 18:40:00,
2013-07-27 13:41:00,66.5,54.8,29.96,North,5,2.0,3.0,66,0.00,,BKN065,0.00,VWS V14.01,2013-07-27 18:41:00,
2013-07-27 13:46:00,66.4,53.9,29.96,NW,305,1.0,4.0,64,0.00,,BKN065,0.00,VWS V14.01,2013-07-27 18:46:00,
2013-07-27 13:50:00,66.1,53.2,29.96,WNW,288,3.0,4.0,63,0.00,,CLR,0.00,VWS V14.01,2013-07-27 18:50:00,
2013-07-27 13:52:00,65.6,54.0,29.96,NW,306,2.0,3.0,66,0.00,,BKN065,0.00,VWS V14.01,2013-07-27 18:52:00,
2013-07-27 13:57:00,65.7,54.0,29.96,NW,307,1.0,3.0,66,0.00,,BKN065,0.00,VWS V14.01,2013-07-27 18:57:00,
2013-07-27 14:00:00,65.9,54.2,29.96,NNE,20,3.0,3.0,66,0.00,,CLR,0.00,VWS V14.01,2013-07-27 19:00:00,
2013-07-27 14:02:00,66.2,54.1,29.96,WNW,285,1.0,6.0,65,0.00,,BKN065,0.00,VWS V14.01,2013-07-27 19:02:00,
2013-07-27 14:07:00,66.2,54.5,29.96,NW,321,1.0,6.0,66,0.00,,BKN065,0.00,VWS V14.01,2013-07-27 19:07:00,
2013-07-27 14:10:00,66.2,54.1,29.96,WSW,257,1.0,6.0,65,0.00,,CLR,0.00,VWS V14.01,2013-07-27 19:10:00,
2013-07-27 14:12:00,66.7,54.6,29.96,West,262,2.0,5.0,65,0.00,,BKN065,0.00,VWS V14.01,2013-07-27 19:12:00,
2013-07-27 14:17:00,66.8,54.2,29.96,NW,315,2.0,5.0,64,0.00,,BKN065,0.00,VWS V14.01,2013-07-27 19:17:00,
2013-07-27 14:20:00,66.8,54.2,29.96,NW,316,0.0,5.0,64,0.00,,CLR,0.00,VWS V14.01,2013-07-27 19:20:00,
2013-07-27 14:22:00,66.5,54.0,29.96,ESE,108,0.0,0.0,64,0.00,,OVC055,0.00,VWS V14.01,2013-07-27 19:22:00,
2013-07-27 14:28:00,65.9,52.5,29.96,NW,316,2.0,4.0,62,0.00,,OVC055,0.00,VWS V14.01,2013-07-27 19:28:00,
2013-07-27 14:30:00,65.9,53.0,29.96,WNW,298,1.0,4.0,63,0.00,,CLR,0.00,VWS V14.01,2013-07-27 19:30:00,
2013-07-27 14:33:00,66.0,53.9,29.97,WNW,291,1.0,3.0,65,0.00,,OVC055,0.00,VWS V14.01,2013-07-27 19:33:00,
2013-07-27 14:38:00,65.8,53.7,29.97,WNW,303,1.0,5.0,65,0.00,,OVC055,0.00,VWS V14.01,2013-07-27 19:38:00,
2013-07-27 14:40:00,65.7,53.6,29.97,WNW,302,1.0,5.0,65,0.00,,CLR,0.00,VWS V14.01,2013-07-27 19:40:00,
2013-07-27 14:43:00,65.5,54.3,29.97,NW,316,0.0,2.0,67,0.00,,OVC055,0.00,VWS V14.01,2013-07-27 19:43:00,
2013-07-27 14:48:00,66.2,56.1,29.97,WNW,287,1.0,1.0,70,0.00,,OVC055,0.00,VWS V14.01,2013-07-27 19:48:00,
2013-07-27 14:50:00,66.1,56.0,29.97,NW,305,0.0,3.0,70,0.00,,CLR,0.00,VWS V14.01,2013-07-27 19:50:00,
2013-07-27 14:53:00,67.0,54.0,29.97,NW,305,3.0,5.0,63,0.00,,OVC055,0.00,VWS V14.01,2013-07-27 19:53:00,
2013-07-27 14:58:00,67.2,54.6,29.97,NW,314,1.0,1.0,64,0.00,,OVC055,0.00,VWS V14.01,2013-07-27 19:58:00,
2013-07-27 15:00:00,67.1,54.1,29.97,NW,324,1.0,5.0,63,0.00,,CLR,0.00,VWS V14.01,2013-07-27 20:00:00,
2013-07-27 15:04:00,66.8,52.5,29.97,NW,325,1.0,4.0,60,0.00,,BKN055,0.00,VWS V14.01,2013-07-27 20:04:00,
2013-07-27 15:09:00,66.2,51.5,29.97,NW,321,2.0,3.0,59,0.00,,BKN055,0.00,VWS V14.01,2013-07-27 20:09:00,
2013-07-27 15:10:00,66.3,51.6,29.97,WNW,291,0.0,6.0,59,0.00,,CLR,0.00,VWS V14.01,2013-07-27 20:10:00,
2013-07-27 15:14:00,65.9,52.1,29.97,NW,305,0.0,3.0,61,0.00,,BKN055,0.00,VWS V14.01,2013-07-27 20:14:00,
2013-07-27 15:19:00,66.1,53.2,29.97,West,269,0.0,1.0,63,0.00,,BKN055,0.00,VWS V14.01,2013-07-27 20:19:00,
2013-07-27 15:20:00,66.0,52.6,29.97,North,353,0.0,3.0,62,0.00,,CLR,0.00,VWS V14.01,2013-07-27 20:20:00,
2013-07-27 15:24:00,66.1,53.6,29.97,West,281,1.0,4.0,64,0.00,,BKN060,0.00,VWS V14.01,2013-07-27 20:24:00,
2013-07-27 15:29:00,65.1,51.8,29.97,SSW,207,1.0,3.0,62,0.00,,BKN060,0.00,VWS V14.01,2013-07-27 20:29:00,
2013-07-27 15:30:00,65.4,52.9,29.97,NW,305,0.0,4.0,64,0.00,,CLR,0.00,VWS V14.01,2013-07-27 20:30:00,
2013-07-27 15:35:00,65.0,51.7,29.97,ESE,103,1.0,3.0,62,0.00,,BKN060,0.00,VWS V14.01,2013-07-27 20:35:00,
2013-07-27 15:40:00,65.2,51.4,29.96,NW,305,2.0,4.0,61,0.00,,BKN060,0.00,VWS V14.01,2013-07-27 20:40:00,
2013-07-27 15:45:00,65.1,50.9,29.97,NW,312,3.0,4.0,60,0.00,,BKN060,0.00,VWS V14.01,2013-07-27 20:45:00,
2013-07-27 15:50:00,64.9,52.0,29.97,WNW,291,1.0,2.0,63,0.00,,BKN060,0.00,VWS V14.01,2013-07-27 20:50:00,
2013-07-27 15:55:00,64.9,51.2,29.97,NW,309,1.0,4.0,61,0.00,,BKN060,0.00,VWS V14.01,2013-07-27 20:55:00,
2013-07-27 16:00:00,64.9,52.0,29.97,West,264,1.0,4.0,63,0.00,,BKN060,0.00,VWS V14.01,2013-07-27 21:00:00,
2013-07-27 16:05:00,64.5,51.2,29.97,NW,313,1.0,5.0,62,0.00,,BKN060,0.00,VWS V14.01,2013-07-27 21:05:00,
2013-07-27 16:10:00,64.4,51.5,29.97,SW,218,1.0,5.0,63,0.00,,CLR,0.00,VWS V14.01,2013-07-27 21:10:00,
2013-07-27 16:11:00,64.4,52.0,29.97,NW,318,1.0,2.0,64,0.00,,BKN060,0.00,VWS V14.01,2013-07-27 21:11:00,
2013-07-27 16:16:00,64.4,51.5,29.97,NNW,336,3.0,5.0,63,0.00,,BKN060,0.00,VWS V14.01,2013-07-27 21:16:00,
2013-07-27 16:20:00,64.4,52.0,29.97,West,280,2.0,5.0,64,0.00,,CLR,0.00,VWS V14.01,2013-07-27 21:20:00,
2013-07-27 16:21:00,64.5,51.6,29.97,North,360,2.0,4.0,63,0.00,,OVC060,0.00,VWS V14.01,2013-07-27 21:21:00,
2013-07-27 16:26:00,64.6,51.7,29.97,ENE,62,2.0,4.0,63,0.00,,OVC060,0.00,VWS V14.01,2013-07-27 21:26:00,
2013-07-27 16:30:00,64.6,51.7,29.97,NNW,340,1.0,4.0,63,0.00,,CLR,0.00,VWS V14.01,2013-07-27 21:30:00,
2013-07-27 16:31:00,64.6,51.7,29.97,WSW,240,1.0,4.0,63,0.00,,OVC060,0.00,VWS V14.01,2013-07-27 21:31:00,
2013-07-27 16:36:00,64.3,51.5,29.97,West,276,0.0,4.0,63,0.00,,OVC060,0.00,VWS V14.01,2013-07-27 21:36:00,
2013-07-27 16:40:00,64.3,51.5,29.97,NW,306,1.0,4.0,63,0.00,,CLR,0.00,VWS V14.01,2013-07-27 21:40:00,
2013-07-27 16:42:00,64.5,51.2,29.97,NW,306,1.0,3.0,62,0.00,,BKN065,0.00,VWS V14.01,2013-07-27 21:42:00,
2013-07-27 16:47:00,64.8,51.0,29.97,NNW,337,1.0,3.0,61,0.00,,BKN065,0.00,VWS V14.01,2013-07-27 21:47:00,
2013-07-27 16:50:00,64.9,51.2,29.96,NW,310,0.0,3.0,61,0.00,,CLR,0.00,VWS V14.01,2013-07-27 21:50:00,
2013-07-27 16:52:00,65.1,50.4,29.97,NNW,342,2.0,4.0,59,0.00,,BKN065,0.00,VWS V14.01,2013-07-27 21:52:00,
2013-07-27 16:57:00,64.8,49.7,29.97,North,6,2.0,5.0,58,0.00,,BKN065,0.00,VWS V14.01,2013-07-27 21:57:00,
2013-07-27 17:00:00,64.7,49.6,29.97,NW,316,1.0,5.0,58,0.00,,CLR,0.00,VWS V14.01,2013-07-27 22:00:00,
2013-07-27 17:02:00,64.4,49.8,29.97,NW,314,0.0,4.0,59,0.00,,OVC065,0.00,VWS V14.01,2013-07-27 22:02:00,
2013-07-27 17:08:00,64.7,50.5,29.97,NW,316,0.0,4.0,60,0.00,,OVC065,0.00,VWS V14.01,2013-07-27 22:08:00,
2013-07-27 17:10:00,64.7,50.5,29.97,SE,127,0.0,4.0,60,0.00,,CLR,0.00,VWS V14.01,2013-07-27 22:10:00,
2013-07-27 17:13:00,65.0,50.8,29.96,North,4,1.0,3.0,60,0.00,,OVC065,0.00,VWS V14.01,2013-07-27 22:13:00,
2013-07-27 17:18:00,65.1,50.0,29.97,WNW,298,2.0,3.0,58,0.00,,OVC065,0.00,VWS V14.01,2013-07-27 22:18:00,
2013-07-27 17:20:00,65.1,50.0,29.97,WNW,298,2.0,3.0,58,0.00,,CLR,0.00,VWS V14.01,2013-07-27 22:20:00,
2013-07-27 17:23:00,65.0,50.3,29.97,WNW,300,1.0,3.0,59,0.00,,OVC065,0.00,VWS V14.01,2013-07-27 22:23:00,
2013-07-27 17:28:00,64.9,49.3,29.97,NW,326,1.0,4.0,57,0.00,,OVC065,0.00,VWS V14.01,2013-07-27 22:28:00,
2013-07-27 17:30:00,64.9,49.3,29.97,NW,323,4.0,5.0,57,0.00,,CLR,0.00,VWS V14.01,2013-07-27 22:30:00,
2013-07-27 17:33:00,64.7,49.6,29.97,WNW,290,1.0,4.0,58,0.00,,OVC065,0.00,VWS V14.01,2013-07-27 22:33:00,
2013-07-27 17:38:00,64.3,50.1,29.97,NW,311,2.0,4.0,60,0.00,,OVC065,0.00,VWS V14.01,2013-07-27 22:38:00,
2013-07-27 17:40:00,64.3,49.2,29.97,SSE,163,3.0,4.0,58,0.00,,CLR,0.00,VWS V14.01,2013-07-27 22:40:00,
2013-07-27 17:44:00,64.1,50.8,29.97,North,349,1.0,4.0,62,0.00,,OVC065,0.00,VWS V14.01,2013-07-27 22:44:00,
2013-07-27 17:49:00,64.5,50.8,29.97,NNW,346,0.0,3.0,61,0.00,,OVC065,0.00,VWS V14.01,2013-07-27 22:49:00,
2013-07-27 17:50:00,64.4,51.1,29.96,West,266,1.0,4.0,62,0.00,,CLR,0.00,VWS V14.01,2013-07-27 22:50:00,
2013-07-27 17:54:00,64.7,49.6,29.96,NW,318,2.0,4.0,58,0.00,,OVC065,0.00,VWS V14.01,2013-07-27 22:54:00,
2013-07-27 17:59:00,64.6,50.4,29.96,ESE,120,1.0,1.0,60,0.00,,OVC065,0.00,VWS V14.01,2013-07-27 22:59:00,
2013-07-27 18:00:00,64.6,50.0,29.96,ESE,119,0.0,4.0,59,0.00,,CLR,0.00,VWS V14.01,2013-07-27 23:00:00,
2013-07-27 18:04:00,64.6,50.9,29.96,WNW,296,2.0,2.0,61,0.00,,OVC065,0.00,VWS V14.01,2013-07-27 23:04:00,
2013-07-27 18:09:00,64.2,50.0,29.97,NW,321,2.0,2.0,60,0.00,,OVC065,0.00,VWS V14.01,2013-07-27 23:09:00,
2013-07-27 18:10:00,64.3,50.1,29.97,NW,305,1.0,3.0,60,0.00,,CLR,0.00,VWS V14.01,2013-07-27 23:10:00,
2013-07-27 18:15:00,64.2,50.0,29.96,WNW,288,0.0,3.0,60,0.00,,OVC065,0.00,VWS V14.01,2013-07-27 23:15:00,
2013-07-27 18:20:00,64.3,50.1,29.96,NW,309,2.0,3.0,60,0.00,,BKN065,0.00,VWS V14.01,2013-07-27 23:20:00,
2013-07-27 18:25:00,64.3,50.6,29.96,North,360,0.0,3.0,61,0.00,,BKN065,0.00,VWS V14.01,2013-07-27 23:25:00,
2013-07-27 18:30:00,64.3,50.6,29.96,NW,305,0.0,2.0,61,0.00,,BKN065,0.00,VWS V14.01,2013-07-27 23:30:00,
2013-07-27 18:35:00,64.3,51.5,29.97,NW,308,1.0,2.0,63,0.00,,BKN065,0.00,VWS V14.01,2013-07-27 23:35:00,
2013-07-27 18:40:00,64.2,50.5,29.97,NW,308,0.0,3.0,61,0.00,,SCT065,0.00,VWS V14.01,2013-07-27 23:40:00,
2013-07-27 18:46:00,64.1,51.3,29.97,North,9,1.0,3.0,63,0.00,,SCT065,0.00,VWS V14.01,2013-07-27 23:46:00,
2013-07-27 18:50:00,64.0,51.6,29.97,North,8,0.0,3.0,64,0.00,,CLR,0.00,VWS V14.01,2013-07-27 23:50:00,
2013-07-27 18:51:00,63.7,51.3,29.97,NW,326,0.0,3.0,64,0.00,,SCT065,0.00,VWS V14.01,2013-07-27 23:51:00,
2013-07-27 18:56:00,63.3,50.9,29.97,NW,304,0.0,3.0,64,0.00,,SCT065,0.00,VWS V14.01,2013-07-27 23:56:00,
2013-07-27 19:00:00,63.2,50.8,29.97,NW,304,0.0,3.0,64,0.00,,CLR,0.00,VWS V14.01,2013-07-28 00:00:00,
2013-07-27 19:02:00,63.1,50.7,29.97,NW,319,0.0,2.0,64,0.00,,BKN065,0.00,VWS V14.01,2013-07-28 00:02:00,
2013-07-27 19:07:00,63.0,51.1,29.97,NW,315,0.0,2.0,65,0.00,,BKN065,0.00,VWS V14.01,2013-07-28 00:07:00,
2013-07-27 19:10:00,62.9,51.0,29.97,NW,312,0.0,2.0,65,0.00,,CLR,0.00,VWS V14.01,2013-07-28 00:10:00,
2013-07-27 19:12:00,62.8,50.9,29.97,NW,320,1.0,3.0,65,0.00,,BKN065,0.00,VWS V14.01,2013-07-28 00:12:00,
2013-07-27 19:17:00,62.6,51.1,29.97,ENE,69,2.0,3.0,66,0.00,,BKN065,0.00,VWS V14.01,2013-07-28 00:17:00,
2013-07-27 19:20:00,62.5,51.0,29.97,NW,313,1.0,3.0,66,0.00,,CLR,0.00,VWS V14.01,2013-07-28 00:20:00,
2013-07-27 19:22:00,62.2,50.7,29.97,NW,316,1.0,1.0,66,0.00,,OVC065,0.00,VWS V14.01,2013-07-28 00:22:00,
2013-07-27 19:28:00,62.0,50.9,29.97,NW,323,0.0,1.0,67,0.00,,OVC065,0.00,VWS V14.01,2013-07-28 00:28:00,
2013-07-27 19:30:00,61.9,50.8,29.97,NW,323,1.0,1.0,67,0.00,,CLR,0.00,VWS V14.01,2013-07-28 00:30:00,
2013-07-27 19:33:00,61.8,51.1,29.97,NW,324,0.0,1.0,68,0.00,,OVC065,0.00,VWS V14.01,2013-07-28 00:33:00,
2013-07-27 19:38:00,61.6,51.0,29.97,NW,313,0.0,1.0,68,0.00,,OVC065,0.00,VWS V14.01,2013-07-28 00:38:00,
2013-07-27 19:40:00,61.6,51.0,29.97,NW,313,0.0,1.0,68,0.00,,CLR,0.00,VWS V14.01,2013-07-28 00:40:00,
2013-07-27 19:43:00,61.3,51.1,29.97,NNW,342,0.0,4.0,69,0.00,,SCT065,0.00,VWS V14.01,2013-07-28 00:43:00,
2013-07-27 19:48:00,61.0,50.8,29.97,NNW,342,0.0,0.0,69,0.00,,SCT065,0.00,VWS V14.01,2013-07-28 00:48:00,
2013-07-27 19:50:00,61.0,50.8,29.97,NNW,342,0.0,4.0,69,0.00,,CLR,0.00,VWS V14.01,2013-07-28 00:50:00,
2013-07-27 19:53:00,60.8,51.0,29.97,NNW,342,0.0,0.0,70,0.00,,SCT065,0.00,VWS V14.01,2013-07-28 00:53:00,
2013-07-27 19:59:00,60.6,51.2,29.97,NNW,342,0.0,0.0,71,0.00,,SCT065,0.00,VWS V14.01,2013-07-28 00:59:00,
2013-07-27 20:00:00,60.7,51.2,29.97,NNW,342,0.0,0.0,71,0.00,,CLR,0.00,VWS V14.01,2013-07-28 01:00:00,
2013-07-27 20:04:00,60.4,51.7,29.97,NNW,342,0.0,0.0,73,0.00,,CLR,0.00,VWS V14.01,2013-07-28 01:04:00,
2013-07-27 20:09:00,60.1,52.2,29.97,NNW,342,0.0,0.0,75,0.00,,CLR,0.00,VWS V14.01,2013-07-28 01:09:00,
2013-07-27 20:10:00,60.2,51.9,29.97,NNW,342,0.0,0.0,74,0.00,,CLR,0.00,VWS V14.01,2013-07-28 01:10:00,
2013-07-27 20:14:00,59.7,52.1,29.97,NNW,342,0.0,0.0,76,0.00,,CLR,0.00,VWS V14.01,2013-07-28 01:14:00,
2013-07-27 20:19:00,59.2,51.3,29.97,NNW,342,0.0,0.0,75,0.00,,CLR,0.00,VWS V14.01,2013-07-28 01:19:00,
2013-07-27 20:20:00,59.3,51.4,29.97,NNW,342,0.0,0.0,75,0.00,,CLR,0.00,VWS V14.01,2013-07-28 01:20:00,
2013-07-27 20:24:00,58.8,52.3,29.97,NNW,342,0.0,0.0,79,0.00,,CLR,0.00,VWS V14.01,2013-07-28 01:24:00,
2013-07-27 20:29:00,58.3,51.5,29.97,NNW,343,0.0,0.0,78,0.00,,CLR,0.00,VWS V14.01,2013-07-28 01:29:00,
2013-07-27 20:30:00,58.4,51.6,29.97,NNW,342,0.0,0.0,78,0.00,,CLR,0.00,VWS V14.01,2013-07-28 01:30:00,
2013-07-27 20:34:00,57.9,51.4,29.97,NNW,343,0.0,0.0,79,0.00,,CLR,0.00,VWS V14.01,2013-07-28 01:34:00,
2013-07-27 20:40:00,57.5,51.7,29.98,NNW,343,0.0,0.0,81,0.00,,BKN075,0.00,VWS V14.01,2013-07-28 01:40:00,
2013-07-27 20:45:00,57.2,51.8,29.98,NNW,343,0.0,0.0,82,0.00,,BKN075,0.00,VWS V14.01,2013-07-28 01:45:00,
2013-07-27 20:50:00,57.0,51.6,29.98,NNW,343,0.0,0.0,82,0.00,,BKN075,0.00,VWS V14.01,2013-07-28 01:50:00,
2013-07-27 20:55:00,56.8,51.7,29.98,NNW,343,0.0,0.0,83,0.00,,BKN075,0.00,VWS V14.01,2013-07-28 01:55:00,
2013-07-27 21:00:00,56.6,51.5,29.98,NNW,343,0.0,0.0,83,0.00,,OVC075,0.00,VWS V14.01,2013-07-28 02:00:00,
2013-07-27 21:05:00,56.5,51.4,29.98,NNW,342,0.0,0.0,83,0.00,,OVC075,0.00,VWS V14.01,2013-07-28 02:05:00,
2013-07-27 21:10:00,56.4,51.3,29.98,NNW,342,0.0,0.0,83,0.00,,CLR,0.00,VWS V14.01,2013-07-28 02:10:00,
2013-07-27 21:11:00,56.3,51.2,29.98,NNW,342,0.0,0.0,83,0.00,,OVC075,0.00,VWS V14.01,2013-07-28 02:11:00,
2013-07-27 21:16:00,56.3,51.2,29.98,NNW,342,0.0,0.0,83,0.00,,OVC075,0.00,VWS V14.01,2013-07-28 02:16:00,
2013-07-27 21:20:00,56.3,51.5,29.98,NNW,341,0.0,0.0,84,0.00,,CLR,0.00,VWS V14.01,2013-07-28 02:20:00,
2013-07-27 21:21:00,56.3,51.5,29.98,NNW,343,0.0,0.0,84,0.00,,OVC065,0.00,VWS V14.01,2013-07-28 02:21:00,
2013-07-27 21:26:00,56.4,51.6,29.98,NNW,343,0.0,0.0,84,0.00,,OVC065,0.00,VWS V14.01,2013-07-28 02:26:00,
2013-07-27 21:30:00,56.5,51.7,29.98,NNW,342,0.0,0.0,84,0.00,,CLR,0.00,VWS V14.01,2013-07-28 02:30:00,
2013-07-27 21:32:00,56.5,51.7,29.98,NNW,342,0.0,0.0,84,0.00,,OVC065,0.00,VWS V14.01,2013-07-28 02:32:00,
2013-07-27 21:37:00,56.7,51.9,29.98,NNW,343,0.0,0.0,84,0.00,,OVC065,0.00,VWS V14.01,2013-07-28 02:37:00,
2013-07-27 21:40:00,56.7,51.9,29.98,NNW,343,0.0,0.0,84,0.00,,CLR,0.00,VWS V14.01,2013-07-28 02:40:00,
2013-07-27 21:42:00,56.7,52.2,29.98,NNW,342,0.0,0.0,85,0.00,,OVC075,0.00,VWS V14.01,2013-07-28 02:42:00,
2013-07-27 21:47:00,56.5,51.7,29.98,NNW,343,0.0,0.0,84,0.00,,OVC075,0.00,VWS V14.01,2013-07-28 02:47:00,
2013-07-27 21:50:00,56.5,51.7,29.98,NNW,343,0.0,0.0,84,0.00,,CLR,0.00,VWS V14.01,2013-07-28 02:50:00,
2013-07-27 21:52:00,56.4,52.0,29.99,NNW,342,0.0,0.0,85,0.00,,OVC075,0.00,VWS V14.01,2013-07-28 02:52:00,
2013-07-27 21:58:00,56.3,51.9,29.99,NNW,342,0.0,0.0,85,0.00,,OVC075,0.00,VWS V14.01,2013-07-28 02:58:00,
2013-07-27 22:00:00,56.3,52.2,29.99,NNW,343,0.0,0.0,86,0.00,,CLR,0.00,VWS V14.01,2013-07-28 03:00:00,
2013-07-27 22:03:00,56.3,52.2,29.99,NNW,341,0.0,0.0,86,0.00,,OVC075,0.00,VWS V14.01,2013-07-28 03:03:00,
2013-07-27 22:08:00,56.2,52.4,29.99,NNW,343,0.0,0.0,87,0.00,,OVC075,0.00,VWS V14.01,2013-07-28 03:08:00,
2013-07-27 22:10:00,56.2,52.4,29.99,NNW,342,0.0,0.0,87,0.00,,CLR,0.00,VWS V14.01,2013-07-28 03:10:00,
2013-07-27 22:13:00,56.1,52.3,29.99,NNW,341,0.0,0.0,87,0.00,,OVC075,0.00,VWS V14.01,2013-07-28 03:13:00,
2013-07-27 22:18:00,56.1,52.6,29.98,NNW,342,0.0,0.0,88,0.00,,OVC075,0.00,VWS V14.01,2013-07-28 03:18:00,
2013-07-27 22:20:00,56.1,52.6,29.99,NNW,343,0.0,0.0,88,0.00,,CLR,0.00,VWS V14.01,2013-07-28 03:20:00,
2013-07-27 22:24:00,56.0,52.2,29.99,NNW,343,0.0,0.0,87,0.00,,OVC075,0.00,VWS V14.01,2013-07-28 03:24:00,
2013-07-27 22:29:00,56.0,52.2,29.99,NNW,342,0.0,0.0,87,0.00,,OVC075,0.00,VWS V14.01,2013-07-28 03:29:00,
2013-07-27 22:30:00,56.0,52.2,29.99,NNW,342,0.0,0.0,87,0.00,,CLR,0.00,VWS V14.01,2013-07-28 03:30:00,
2013-07-27 22:34:00,56.2,52.4,29.99,NNW,342,0.0,0.0,87,0.00,,OVC075,0.00,VWS V14.01,2013-07-28 03:34:00,
2013-07-27 22:39:00,56.3,52.5,29.99,NNW,342,0.0,0.0,87,0.00,,OVC075,0.00,VWS V14.01,2013-07-28 03:39:00,
2013-07-27 22:40:00,56.3,52.5,29.99,NNW,342,0.0,0.0,87,0.00,,CLR,0.00,VWS V14.01,2013-07-28 03:40:00,
2013-07-27 22:44:00,56.4,52.6,29.99,NNW,342,0.0,0.0,87,0.00,,OVC075,0.00,VWS V14.01,2013-07-28 03:44:00,
2013-07-27 22:50:00,56.6,53.1,29.99,NNW,343,0.0,0.0,88,0.00,,OVC075,0.00,VWS V14.01,2013-07-28 03:50:00,
2013-07-27 22:55:00,56.7,53.2,29.99,NNW,343,0.0,0.0,88,0.00,,OVC075,0.00,VWS V14.01,2013-07-28 03:55:00,
2013-07-27 23:00:00,56.5,52.7,29.98,NNW,343,0.0,0.0,87,0.00,,OVC080,0.00,VWS V14.01,2013-07-28 04:00:00,
2013-07-27 23:01:00,56.5,52.7,29.98,NNW,343,0.0,0.0,87,0.00,,OVC080,0.00,VWS V14.01,2013-07-28 04:01:00,
2013-07-27 23:02:00,56.5,52.7,29.98,NNW,343,0.0,0.0,87,0.00,,OVC080,0.00,VWS V14.01,2013-07-28 04:02:00,
2013-07-27 23:03:00,56.5,52.7,29.98,NNW,343,0.0,0.0,87,0.00,,OVC080,0.00,VWS V14.01,2013-07-28 04:03:00,
2013-07-27 23:04:00,56.4,52.6,29.98,NNW,342,0.0,0.0,87,0.00,,OVC080,0.00,VWS V14.01,2013-07-28 04:04:00,
2013-07-27 23:08:00,56.3,52.5,29.99,NNW,343,0.0,0.0,87,0.00,,OVC080,0.00,VWS V14.01,2013-07-28 04:08:00,
2013-07-27 23:10:00,56.3,52.5,29.99,NNW,343,0.0,0.0,87,0.00,,CLR,0.00,VWS V14.01,2013-07-28 04:10:00,
2013-07-27 23:14:00,56.2,52.4,29.99,NNW,342,0.0,0.0,87,0.00,,OVC080,0.00,VWS V14.01,2013-07-28 04:14:00,
2013-07-27 23:19:00,56.2,52.1,29.99,North,349,0.0,0.0,86,0.00,,OVC080,0.00,VWS V14.01,2013-07-28 04:19:00,
2013-07-27 23:20:00,56.2,52.1,29.99,North,349,0.0,0.0,86,0.00,,CLR,0.00,VWS V14.01,2013-07-28 04:20:00,
2013-07-27 23:24:00,56.4,52.3,29.99,North,349,0.0,0.0,86,0.00,,OVC065,0.00,VWS V14.01,2013-07-28 04:24:00,
2013-07-27 23:29:00,56.6,52.5,29.99,North,349,0.0,0.0,86,0.00,,OVC065,0.00,VWS V14.01,2013-07-28 04:29:00,
2013-07-27 23:30:00,56.5,52.4,29.99,North,349,0.0,0.0,86,0.00,,CLR,0.00,VWS V14.01,2013-07-28 04:30:00,
2013-07-27 23:35:00,56.6,52.5,29.99,North,350,0.0,0.0,86,0.00,,OVC065,0.00,VWS V14.01,2013-07-28 04:35:00,
2013-07-27 23:40:00,56.6,52.5,29.99,North,349,0.0,0.0,86,0.00,,OVC080,0.00,VWS V14.01,2013-07-28 04:40:00,
2013-07-27 23:45:00,56.7,52.6,29.99,North,349,0.0,0.0,86,0.00,,OVC080,0.00,VWS V14.01,2013-07-28 04:45:00,
2013-07-27 23:50:00,56.8,52.3,29.99,North,349,0.0,0.0,85,0.00,,OVC080,0.00,VWS V14.01,2013-07-28 04:50:00,
2013-07-27 23:55:00,57.0,51.9,29.98,NW,311,0.0,0.0,83,0.00,,OVC080,0.00,VWS V14.01,2013-07-28 04:55:00,